<?xml version="1.0" encoding="UTF-8" standalone="no" ?>
<gpx xmlns="http://www.topografix.com/GPX/1/1" xmlns:xsi="http://www.w3.org/2001/XMLSchema-instance" xsi:schemaLocation="http://www.topografix.com/GPX/1/1 http://www.topografix.com/GPX/1/1/gpx.xsd" version="1.1" creator="VisuGPX - https://www.visugpx.com">
  <metadata>
    <name>Le four à pain et la croix auvergnate de Chastreix</name>
  </metadata>
  <wpt lat="45.51246" lon="2.73472">
    <ele>1050.6</ele>
    <name><![CDATA[Parking derrière l'église de Chastreix]]></name>
  </wpt>
  <wpt lat="45.51601" lon="2.73719">
    <ele>1071.8</ele>
    <name><![CDATA[Au niveau de l'hangar]]></name>
  </wpt>
  <wpt lat="45.51664" lon="2.73746">
    <ele>1087.4</ele>
    <name><![CDATA[Route de la Station Chastreix sancy]]></name>
  </wpt>
  <wpt lat="45.51691" lon="2.73752">
    <ele>1090.8</ele>
    <name><![CDATA[Passage D 615]]></name>
  </wpt>
  <wpt lat="45.5169" lon="2.73702">
    <ele>1089.2</ele>
    <name><![CDATA[Croisement D615 et D88]]></name>
  </wpt>
  <wpt lat="45.51755" lon="2.7442">
    <ele>1155.4</ele>
    <name><![CDATA[S'engager entre les batiments]]></name>
  </wpt>
  <wpt lat="45.51775" lon="2.74565">
    <ele>1171</ele>
    <name><![CDATA[Passage entre deux maisons]]></name>
  </wpt>
  <wpt lat="45.51379" lon="2.7471">
    <ele>1092.1</ele>
    <name><![CDATA[Four à pain]]></name>
  </wpt>
  <wpt lat="45.51362" lon="2.74703">
    <ele>1089.8</ele>
    <name><![CDATA[La Vessaire]]></name>
  </wpt>
  <wpt lat="45.51179" lon="2.73926">
    <ele>1035.9</ele>
    <name><![CDATA[Vers le Village]]></name>
  </wpt>
  <wpt lat="45.51172" lon="2.73649">
    <ele>1031.4</ele>
    <name><![CDATA[Entrée de Chastreix]]></name>
  </wpt>
  <wpt lat="45.51236" lon="2.73473">
    <ele>1049.6</ele>
    <name><![CDATA[Parking derrière l'église de Chastreix]]></name>
  </wpt>
  <trk>
    <name><![CDATA[Le four à pain et la croix auvergnate de Chastreix]]></name>
    <trkseg>
      <trkpt lat="45.51246" lon="2.73472">
        <ele>1051</ele>
        <time>2021-01-06T16:46:20+01:00</time>
      </trkpt>
      <trkpt lat="45.51264" lon="2.73486">
        <ele>1047</ele>
        <time>2021-01-06T16:46:25+01:00</time>
      </trkpt>
      <trkpt lat="45.51294" lon="2.73437">
        <ele>1045</ele>
        <time>2021-01-06T16:46:30+01:00</time>
      </trkpt>
      <trkpt lat="45.51317" lon="2.73424">
        <ele>1042</ele>
        <time>2021-01-06T16:46:35+01:00</time>
      </trkpt>
      <trkpt lat="45.51336" lon="2.73416">
        <ele>1039</ele>
        <time>2021-01-06T16:46:40+01:00</time>
      </trkpt>
      <trkpt lat="45.51356" lon="2.7342">
        <ele>1037</ele>
        <time>2021-01-06T16:46:45+01:00</time>
      </trkpt>
      <trkpt lat="45.51464" lon="2.73451">
        <ele>1037</ele>
        <time>2021-01-06T16:46:50+01:00</time>
      </trkpt>
      <trkpt lat="45.51534" lon="2.73479">
        <ele>1049</ele>
        <time>2021-01-06T16:46:55+01:00</time>
      </trkpt>
      <trkpt lat="45.51569" lon="2.73504">
        <ele>1059</ele>
        <time>2021-01-06T16:47:00+01:00</time>
      </trkpt>
      <trkpt lat="45.51601" lon="2.73719">
        <ele>1072</ele>
        <time>2021-01-06T16:47:05+01:00</time>
      </trkpt>
      <trkpt lat="45.51664" lon="2.73746">
        <ele>1087</ele>
        <time>2021-01-06T16:47:10+01:00</time>
      </trkpt>
      <trkpt lat="45.51691" lon="2.73752">
        <ele>1091</ele>
        <time>2021-01-06T16:47:15+01:00</time>
      </trkpt>
      <trkpt lat="45.5169" lon="2.73702">
        <ele>1089</ele>
        <time>2021-01-06T16:47:20+01:00</time>
      </trkpt>
      <trkpt lat="45.51709" lon="2.73733">
        <ele>1092</ele>
        <time>2021-01-06T16:47:25+01:00</time>
      </trkpt>
      <trkpt lat="45.51732" lon="2.73756">
        <ele>1096</ele>
        <time>2021-01-06T16:47:30+01:00</time>
      </trkpt>
      <trkpt lat="45.51779" lon="2.73803">
        <ele>1100</ele>
        <time>2021-01-06T16:47:35+01:00</time>
      </trkpt>
      <trkpt lat="45.51764" lon="2.73837">
        <ele>1107</ele>
        <time>2021-01-06T16:47:40+01:00</time>
      </trkpt>
      <trkpt lat="45.51745" lon="2.73856">
        <ele>1110</ele>
        <time>2021-01-06T16:47:45+01:00</time>
      </trkpt>
      <trkpt lat="45.51721" lon="2.73907">
        <ele>1112</ele>
        <time>2021-01-06T16:47:50+01:00</time>
      </trkpt>
      <trkpt lat="45.5171" lon="2.7397">
        <ele>1115</ele>
        <time>2021-01-06T16:47:55+01:00</time>
      </trkpt>
      <trkpt lat="45.51704" lon="2.74007">
        <ele>1117</ele>
        <time>2021-01-06T16:48:00+01:00</time>
      </trkpt>
      <trkpt lat="45.51695" lon="2.74043">
        <ele>1118</ele>
        <time>2021-01-06T16:48:05+01:00</time>
      </trkpt>
      <trkpt lat="45.51755" lon="2.7442">
        <ele>1155</ele>
        <time>2021-01-06T16:48:10+01:00</time>
      </trkpt>
      <trkpt lat="45.51766" lon="2.74469">
        <ele>1161</ele>
        <time>2021-01-06T16:48:15+01:00</time>
      </trkpt>
      <trkpt lat="45.51776" lon="2.74495">
        <ele>1166</ele>
        <time>2021-01-06T16:48:20+01:00</time>
      </trkpt>
      <trkpt lat="45.51781" lon="2.74514">
        <ele>1169</ele>
        <time>2021-01-06T16:48:25+01:00</time>
      </trkpt>
      <trkpt lat="45.51775" lon="2.74565">
        <ele>1171</ele>
        <time>2021-01-06T16:48:30+01:00</time>
      </trkpt>
      <trkpt lat="45.51756" lon="2.74586">
        <ele>1167</ele>
        <time>2021-01-06T16:48:35+01:00</time>
      </trkpt>
      <trkpt lat="45.51734" lon="2.74626">
        <ele>1162</ele>
        <time>2021-01-06T16:48:40+01:00</time>
      </trkpt>
      <trkpt lat="45.51713" lon="2.74658">
        <ele>1157</ele>
        <time>2021-01-06T16:48:45+01:00</time>
      </trkpt>
      <trkpt lat="45.517" lon="2.74712">
        <ele>1155</ele>
        <time>2021-01-06T16:48:50+01:00</time>
      </trkpt>
      <trkpt lat="45.51685" lon="2.74766">
        <ele>1150</ele>
        <time>2021-01-06T16:48:55+01:00</time>
      </trkpt>
      <trkpt lat="45.5165" lon="2.74878">
        <ele>1140</ele>
        <time>2021-01-06T16:49:00+01:00</time>
      </trkpt>
      <trkpt lat="45.51557" lon="2.74743">
        <ele>1120</ele>
        <time>2021-01-06T16:49:05+01:00</time>
      </trkpt>
      <trkpt lat="45.5154" lon="2.7474">
        <ele>1117</ele>
        <time>2021-01-06T16:49:10+01:00</time>
      </trkpt>
      <trkpt lat="45.51529" lon="2.74748">
        <ele>1115</ele>
        <time>2021-01-06T16:49:15+01:00</time>
      </trkpt>
      <trkpt lat="45.51521" lon="2.74775">
        <ele>1115</ele>
        <time>2021-01-06T16:49:20+01:00</time>
      </trkpt>
      <trkpt lat="45.5151" lon="2.74797">
        <ele>1113</ele>
        <time>2021-01-06T16:49:25+01:00</time>
      </trkpt>
      <trkpt lat="45.51502" lon="2.748">
        <ele>1112</ele>
        <time>2021-01-06T16:49:30+01:00</time>
      </trkpt>
      <trkpt lat="45.51499" lon="2.74798">
        <ele>1111</ele>
        <time>2021-01-06T16:49:35+01:00</time>
      </trkpt>
      <trkpt lat="45.51468" lon="2.74759">
        <ele>1106</ele>
        <time>2021-01-06T16:49:40+01:00</time>
      </trkpt>
      <trkpt lat="45.5143" lon="2.74723">
        <ele>1099</ele>
        <time>2021-01-06T16:49:45+01:00</time>
      </trkpt>
      <trkpt lat="45.51379" lon="2.7471">
        <ele>1092</ele>
        <time>2021-01-06T16:49:50+01:00</time>
      </trkpt>
      <trkpt lat="45.51362" lon="2.74703">
        <ele>1090</ele>
        <time>2021-01-06T16:49:55+01:00</time>
      </trkpt>
      <trkpt lat="45.51367" lon="2.74674">
        <ele>1090</ele>
        <time>2021-01-06T16:50:00+01:00</time>
      </trkpt>
      <trkpt lat="45.51373" lon="2.74652">
        <ele>1090</ele>
        <time>2021-01-06T16:50:05+01:00</time>
      </trkpt>
      <trkpt lat="45.51382" lon="2.74639">
        <ele>1090</ele>
        <time>2021-01-06T16:50:10+01:00</time>
      </trkpt>
      <trkpt lat="45.51355" lon="2.74712">
        <ele>1089</ele>
        <time>2021-01-06T16:50:15+01:00</time>
      </trkpt>
      <trkpt lat="45.51338" lon="2.7475">
        <ele>1088</ele>
        <time>2021-01-06T16:50:20+01:00</time>
      </trkpt>
      <trkpt lat="45.51329" lon="2.7479">
        <ele>1088</ele>
        <time>2021-01-06T16:50:25+01:00</time>
      </trkpt>
      <trkpt lat="45.51303" lon="2.74771">
        <ele>1086</ele>
        <time>2021-01-06T16:50:30+01:00</time>
      </trkpt>
      <trkpt lat="45.5128" lon="2.74756">
        <ele>1083</ele>
        <time>2021-01-06T16:50:35+01:00</time>
      </trkpt>
      <trkpt lat="45.51249" lon="2.74753">
        <ele>1081</ele>
        <time>2021-01-06T16:50:40+01:00</time>
      </trkpt>
      <trkpt lat="45.5123" lon="2.74732">
        <ele>1079</ele>
        <time>2021-01-06T16:50:45+01:00</time>
      </trkpt>
      <trkpt lat="45.5121" lon="2.74661">
        <ele>1074</ele>
        <time>2021-01-06T16:50:50+01:00</time>
      </trkpt>
      <trkpt lat="45.512" lon="2.74596">
        <ele>1068</ele>
        <time>2021-01-06T16:50:55+01:00</time>
      </trkpt>
      <trkpt lat="45.51167" lon="2.74411">
        <ele>1050</ele>
        <time>2021-01-06T16:51:00+01:00</time>
      </trkpt>
      <trkpt lat="45.51164" lon="2.74349">
        <ele>1047</ele>
        <time>2021-01-06T16:51:05+01:00</time>
      </trkpt>
      <trkpt lat="45.51168" lon="2.74284">
        <ele>1046</ele>
        <time>2021-01-06T16:51:10+01:00</time>
      </trkpt>
      <trkpt lat="45.51164" lon="2.74176">
        <ele>1043</ele>
        <time>2021-01-06T16:51:15+01:00</time>
      </trkpt>
      <trkpt lat="45.51179" lon="2.73926">
        <ele>1036</ele>
        <time>2021-01-06T16:51:20+01:00</time>
      </trkpt>
      <trkpt lat="45.51186" lon="2.73779">
        <ele>1032</ele>
        <time>2021-01-06T16:51:25+01:00</time>
      </trkpt>
      <trkpt lat="45.51187" lon="2.73745">
        <ele>1031</ele>
        <time>2021-01-06T16:51:30+01:00</time>
      </trkpt>
      <trkpt lat="45.51186" lon="2.73709">
        <ele>1030</ele>
        <time>2021-01-06T16:51:35+01:00</time>
      </trkpt>
      <trkpt lat="45.51172" lon="2.73649">
        <ele>1031</ele>
        <time>2021-01-06T16:51:40+01:00</time>
      </trkpt>
      <trkpt lat="45.51175" lon="2.73644">
        <ele>1032</ele>
        <time>2021-01-06T16:51:45+01:00</time>
      </trkpt>
      <trkpt lat="45.51184" lon="2.73641">
        <ele>1032</ele>
        <time>2021-01-06T16:51:50+01:00</time>
      </trkpt>
      <trkpt lat="45.51183" lon="2.7362">
        <ele>1034</ele>
        <time>2021-01-06T16:51:55+01:00</time>
      </trkpt>
      <trkpt lat="45.51181" lon="2.73602">
        <ele>1035</ele>
        <time>2021-01-06T16:52:00+01:00</time>
      </trkpt>
      <trkpt lat="45.51192" lon="2.73586">
        <ele>1037</ele>
        <time>2021-01-06T16:52:05+01:00</time>
      </trkpt>
      <trkpt lat="45.51192" lon="2.73563">
        <ele>1039</ele>
        <time>2021-01-06T16:52:10+01:00</time>
      </trkpt>
      <trkpt lat="45.51204" lon="2.73535">
        <ele>1042</ele>
        <time>2021-01-06T16:52:15+01:00</time>
      </trkpt>
      <trkpt lat="45.51212" lon="2.73524">
        <ele>1043</ele>
        <time>2021-01-06T16:52:20+01:00</time>
      </trkpt>
      <trkpt lat="45.51216" lon="2.73502">
        <ele>1046</ele>
        <time>2021-01-06T16:52:25+01:00</time>
      </trkpt>
      <trkpt lat="45.51219" lon="2.73457">
        <ele>1049</ele>
        <time>2021-01-06T16:52:30+01:00</time>
      </trkpt>
      <trkpt lat="45.51236" lon="2.73466">
        <ele>1050</ele>
        <time>2021-01-06T16:52:35+01:00</time>
      </trkpt>
      <trkpt lat="45.51236" lon="2.73473">
        <ele>1050</ele>
        <time>2021-01-06T16:52:40+01:00</time>
      </trkpt>
    </trkseg>
  </trk>
</gpx>